createdAt,value
2022-11-29T00:00:51.247Z,996.54
2022-11-29T00:01:54.482Z,996.51
2022-11-29T00:02:57.601Z,996.53
2022-11-29T00:04:00.405Z,996.53
2022-11-29T00:05:03.034Z,996.5
2022-11-29T00:06:05.927Z,996.55
2022-11-29T00:07:08.789Z,996.53
2022-11-29T00:08:11.416Z,996.53
2022-11-29T00:09:14.077Z,996.53
2022-11-29T00:10:16.746Z,996.51
2022-11-29T00:11:19.397Z,996.5
2022-11-29T00:12:22.050Z,996.52
2022-11-29T00:13:24.742Z,996.49
2022-11-29T00:14:27.441Z,996.51
2022-11-29T00:15:30.357Z,996.54
2022-11-29T00:16:33.241Z,996.53
2022-11-29T00:17:35.869Z,996.57
2022-11-29T00:18:38.537Z,996.52
2022-11-29T00:19:41.230Z,996.47
2022-11-29T00:20:43.888Z,996.48
2022-11-29T00:21:46.497Z,996.51
2022-11-29T00:22:49.149Z,996.49
2022-11-29T00:23:52.066Z,996.5
2022-11-29T00:24:54.675Z,996.52
2022-11-29T00:25:57.318Z,996.52
2022-11-29T00:27:00.032Z,996.45
2022-11-29T00:28:02.910Z,996.48
2022-11-29T00:29:05.779Z,996.47
2022-11-29T00:30:08.420Z,996.43
2022-11-29T00:31:11.295Z,996.45
2022-11-29T00:32:14.150Z,996.41
2022-11-29T00:33:16.789Z,996.43
2022-11-29T00:34:19.447Z,996.45
2022-11-29T00:35:22.143Z,996.42
2022-11-29T00:36:24.784Z,996.48
2022-11-29T00:37:27.468Z,996.48
2022-11-29T00:38:30.683Z,996.41
2022-11-29T00:39:33.355Z,996.47
2022-11-29T00:40:35.988Z,996.49
2022-11-29T00:41:38.647Z,996.52
2022-11-29T00:42:41.319Z,996.51
2022-11-29T00:43:43.964Z,996.5
2022-11-29T00:44:46.730Z,996.54
2022-11-29T00:45:49.543Z,996.48
2022-11-29T00:46:52.197Z,996.52
2022-11-29T00:47:54.866Z,996.47
2022-11-29T00:48:57.492Z,996.54
2022-11-29T00:50:00.104Z,996.56
2022-11-29T00:51:03.472Z,996.56
2022-11-29T00:52:06.077Z,996.53
2022-11-29T00:53:08.750Z,996.59
2022-11-29T00:54:11.381Z,996.54
2022-11-29T00:55:14.074Z,996.54
2022-11-29T00:56:16.764Z,996.51
2022-11-29T00:57:19.450Z,996.56
2022-11-29T00:58:22.090Z,996.51
2022-11-29T00:59:24.761Z,996.52
2022-11-29T01:00:27.410Z,996.52
2022-11-29T01:01:30.261Z,996.59
2022-11-29T01:02:33.312Z,996.56
2022-11-29T01:03:35.966Z,996.57
2022-11-29T01:04:38.601Z,996.54
2022-11-29T01:05:41.218Z,996.48
2022-11-29T01:06:43.934Z,996.53
2022-11-29T01:07:46.826Z,996.55
2022-11-29T01:08:49.484Z,996.53
2022-11-29T01:09:52.126Z,996.58
2022-11-29T01:10:54.839Z,996.54
2022-11-29T01:11:57.676Z,996.58
2022-11-29T01:13:00.326Z,996.55
2022-11-29T01:14:03.004Z,996.58
2022-11-29T01:15:05.632Z,996.54
2022-11-29T01:16:08.275Z,996.55
2022-11-29T01:17:11.035Z,996.52
2022-11-29T01:18:13.917Z,996.57
2022-11-29T01:19:16.601Z,996.58
2022-11-29T01:20:19.514Z,996.6
2022-11-29T01:21:22.100Z,996.6
2022-11-29T01:22:24.817Z,996.61
2022-11-29T01:23:27.463Z,996.58
2022-11-29T01:24:30.136Z,996.62
2022-11-29T01:25:32.800Z,996.64
2022-11-29T01:26:35.690Z,996.67
2022-11-29T01:27:38.599Z,996.62
2022-11-29T01:28:41.216Z,996.66
2022-11-29T01:29:44.096Z,996.63
2022-11-29T01:30:47.031Z,996.6
2022-11-29T01:31:49.680Z,996.58
2022-11-29T01:32:52.305Z,996.55
2022-11-29T01:33:54.921Z,996.59
2022-11-29T01:34:57.574Z,996.58
2022-11-29T01:36:00.171Z,996.61
2022-11-29T01:37:02.789Z,996.61
2022-11-29T01:38:06.124Z,996.55
2022-11-29T01:39:08.761Z,996.64
2022-11-29T01:40:11.370Z,996.59
2022-11-29T01:41:14.025Z,996.59
2022-11-29T01:42:16.715Z,996.58
2022-11-29T01:43:19.333Z,996.57
2022-11-29T01:44:22.013Z,996.63
2022-11-29T01:45:24.928Z,996.62
2022-11-29T01:46:27.941Z,996.58
2022-11-29T01:47:30.577Z,996.59
2022-11-29T01:48:33.232Z,996.65
2022-11-29T01:49:36.082Z,996.59
2022-11-29T01:50:38.753Z,996.55
2022-11-29T01:51:41.408Z,996.54
2022-11-29T01:52:44.087Z,996.59
2022-11-29T01:53:46.820Z,996.61
2022-11-29T01:54:49.971Z,996.6
2022-11-29T01:55:53.653Z,996.64
2022-11-29T01:56:56.227Z,996.61
2022-11-29T01:57:58.877Z,996.57
2022-11-29T01:59:01.529Z,996.54
2022-11-29T02:00:04.230Z,996.59
2022-11-29T02:01:07.144Z,996.55
2022-11-29T02:02:10.017Z,996.54
2022-11-29T02:03:12.897Z,996.55
2022-11-29T02:04:15.525Z,996.56
2022-11-29T02:05:18.190Z,996.59
2022-11-29T02:06:20.853Z,996.55
2022-11-29T02:07:23.658Z,996.57
2022-11-29T02:08:26.561Z,996.53
2022-11-29T02:09:29.309Z,996.55
2022-11-29T02:10:32.161Z,996.53
2022-11-29T02:11:34.806Z,996.55
2022-11-29T02:12:37.442Z,996.55
2022-11-29T02:13:40.106Z,996.43
2022-11-29T02:14:44.277Z,996.51
2022-11-29T02:15:47.310Z,996.54
2022-11-29T02:16:57.019Z,996.46
2022-11-29T02:17:59.273Z,996.49
2022-11-29T02:19:01.930Z,996.49
2022-11-29T02:20:04.577Z,996.45
2022-11-29T02:21:07.208Z,996.47
2022-11-29T02:22:09.854Z,996.5
2022-11-29T02:23:12.444Z,996.44
2022-11-29T02:24:15.105Z,996.46
2022-11-29T02:25:17.839Z,996.36
2022-11-29T02:26:20.699Z,996.46
2022-11-29T02:27:23.383Z,996.43
2022-11-29T02:28:26.062Z,996.42
2022-11-29T02:29:28.735Z,996.41
2022-11-29T02:30:31.817Z,996.38
2022-11-29T02:31:34.507Z,996.42
2022-11-29T02:32:37.143Z,996.41
2022-11-29T02:33:39.791Z,996.43
2022-11-29T02:34:44.096Z,996.38
2022-11-29T02:35:47.068Z,996.42
2022-11-29T02:36:49.689Z,996.4
2022-11-29T02:37:52.387Z,996.31
2022-11-29T02:38:55.064Z,996.41
2022-11-29T02:39:57.685Z,996.42
2022-11-29T02:41:00.435Z,996.38
2022-11-29T02:42:03.523Z,996.39
2022-11-29T02:43:06.108Z,996.37
2022-11-29T02:44:08.791Z,996.42
2022-11-29T02:45:11.976Z,996.41
2022-11-29T02:46:14.799Z,996.43
2022-11-29T02:47:17.441Z,996.43
2022-11-29T02:48:20.073Z,996.41
2022-11-29T02:49:22.708Z,996.43
2022-11-29T02:50:25.376Z,996.44
2022-11-29T02:51:28.005Z,996.46
2022-11-29T02:52:30.709Z,996.42
2022-11-29T02:53:33.284Z,996.42
2022-11-29T02:54:35.912Z,996.41
2022-11-29T02:55:38.549Z,996.42
2022-11-29T02:56:41.498Z,996.38
2022-11-29T02:57:44.148Z,996.4
2022-11-29T02:58:46.819Z,996.49
2022-11-29T02:59:49.464Z,996.47
2022-11-29T03:00:52.137Z,996.48
2022-11-29T03:01:55.506Z,996.42
2022-11-29T03:02:58.274Z,996.48
2022-11-29T03:04:01.152Z,996.5
2022-11-29T03:05:03.788Z,996.54
2022-11-29T03:06:06.446Z,996.53
2022-11-29T03:07:09.118Z,996.5
2022-11-29T03:08:11.775Z,996.56
2022-11-29T03:09:14.651Z,996.52
2022-11-29T03:10:17.288Z,996.53
2022-11-29T03:11:19.920Z,996.51
2022-11-29T03:12:22.903Z,996.59
2022-11-29T03:13:25.517Z,996.54
2022-11-29T03:14:28.171Z,996.56
2022-11-29T03:15:31.152Z,996.59
2022-11-29T03:16:43.829Z,996.59
2022-11-29T03:17:46.030Z,996.59
2022-11-29T03:18:48.643Z,996.59
2022-11-29T03:19:51.272Z,996.55
2022-11-29T03:20:53.923Z,996.61
2022-11-29T03:21:56.536Z,996.6
2022-11-29T03:22:59.172Z,996.6
2022-11-29T03:24:02.077Z,996.65
2022-11-29T03:25:04.767Z,996.66
2022-11-29T03:26:07.484Z,996.66
2022-11-29T03:27:10.124Z,996.68
2022-11-29T03:28:13.901Z,996.71
2022-11-29T03:29:16.965Z,996.67
2022-11-29T03:30:19.573Z,996.71
2022-11-29T03:31:22.343Z,996.7
2022-11-29T03:32:25.067Z,996.71
2022-11-29T03:33:27.785Z,996.71
2022-11-29T03:34:30.417Z,996.66
2022-11-29T03:35:33.048Z,996.73
2022-11-29T03:36:35.709Z,996.7
2022-11-29T03:37:38.328Z,996.74
2022-11-29T03:38:41.021Z,996.72
2022-11-29T03:39:43.678Z,996.73
2022-11-29T03:40:46.305Z,996.78
2022-11-29T03:41:48.977Z,996.78
2022-11-29T03:42:51.646Z,996.7
2022-11-29T03:43:54.487Z,996.76
2022-11-29T03:44:57.350Z,996.74
2022-11-29T03:46:00.190Z,996.81
2022-11-29T03:47:03.112Z,996.75
2022-11-29T03:48:05.767Z,996.8
2022-11-29T03:49:08.697Z,996.79
2022-11-29T03:50:11.340Z,996.82
2022-11-29T03:51:13.982Z,996.77
2022-11-29T03:52:16.623Z,996.82
2022-11-29T03:53:19.288Z,996.81
2022-11-29T03:54:22.621Z,996.8
2022-11-29T03:55:25.249Z,996.85
2022-11-29T03:56:27.898Z,996.85
2022-11-29T03:57:32.124Z,996.82
2022-11-29T03:58:35.130Z,996.82
2022-11-29T03:59:37.876Z,996.85
2022-11-29T04:00:40.466Z,996.79
2022-11-29T04:01:43.297Z,996.88
2022-11-29T04:02:46.144Z,996.89
2022-11-29T04:03:48.888Z,996.88
2022-11-29T04:04:51.505Z,996.84
2022-11-29T04:05:54.154Z,996.95
2022-11-29T04:06:56.788Z,996.94
2022-11-29T04:08:03.135Z,996.95
2022-11-29T04:09:05.541Z,996.95
2022-11-29T04:10:08.507Z,997.02
2022-11-29T04:11:11.608Z,997.01
2022-11-29T04:12:14.221Z,997.05
2022-11-29T04:13:16.850Z,996.99
2022-11-29T04:14:20.067Z,997.03
2022-11-29T04:15:22.961Z,997.07
2022-11-29T04:16:25.702Z,997.06
2022-11-29T04:17:28.337Z,996.94
2022-11-29T04:18:30.959Z,997.01
2022-11-29T04:19:33.619Z,997.01
2022-11-29T04:20:48.728Z,997.01
2022-11-29T04:21:50.875Z,996.98
2022-11-29T04:22:53.484Z,997.03
2022-11-29T04:23:56.135Z,996.97
2022-11-29T04:24:58.772Z,997.02
2022-11-29T04:26:01.432Z,996.97
2022-11-29T04:27:04.091Z,996.95
2022-11-29T04:28:06.725Z,997.08
2022-11-29T04:29:09.365Z,997.07
2022-11-29T04:30:11.989Z,997.08
2022-11-29T04:31:15.035Z,997.07
2022-11-29T04:32:17.736Z,997.09
2022-11-29T04:33:20.396Z,997.06
2022-11-29T04:34:23.105Z,997.08
2022-11-29T04:35:25.772Z,997.1
2022-11-29T04:36:28.413Z,997.11
2022-11-29T04:37:31.305Z,997.11
2022-11-29T04:38:33.934Z,997.1
2022-11-29T04:39:36.575Z,997.11
2022-11-29T04:40:39.266Z,997.09
2022-11-29T04:41:41.933Z,997.05
2022-11-29T04:42:44.558Z,997.14
2022-11-29T04:43:47.241Z,997.08
2022-11-29T04:44:49.890Z,997.12
2022-11-29T04:45:52.528Z,997.12
2022-11-29T04:46:55.256Z,997.13
2022-11-29T04:47:57.933Z,997.19
2022-11-29T04:49:00.572Z,997.15
2022-11-29T04:50:03.217Z,997.15
2022-11-29T04:51:05.895Z,997.18
2022-11-29T04:52:09.105Z,997.19
2022-11-29T04:53:11.747Z,997.22
2022-11-29T04:54:14.457Z,997.2
2022-11-29T04:55:31.429Z,997.2
2022-11-29T04:56:33.614Z,997.21
2022-11-29T04:57:36.222Z,997.2
2022-11-29T04:58:38.858Z,997.25
2022-11-29T04:59:41.601Z,997.26
2022-11-29T05:00:44.243Z,997.27
2022-11-29T05:01:47.340Z,997.27
2022-11-29T05:02:50.233Z,997.27
2022-11-29T05:03:57.654Z,997.32
2022-11-29T05:05:00.024Z,997.39
2022-11-29T05:06:02.658Z,997.37
2022-11-29T05:07:05.380Z,997.38
2022-11-29T05:08:07.986Z,997.41
2022-11-29T05:09:10.600Z,997.4
2022-11-29T05:10:13.465Z,997.38
2022-11-29T05:11:16.093Z,997.48
2022-11-29T05:12:18.778Z,997.48
2022-11-29T05:13:21.631Z,997.43
2022-11-29T05:14:24.262Z,997.42
2022-11-29T05:15:26.948Z,997.47
2022-11-29T05:16:29.607Z,997.43
2022-11-29T05:17:32.234Z,997.4
2022-11-29T05:18:34.966Z,997.43
2022-11-29T05:19:37.613Z,997.46
2022-11-29T05:20:40.469Z,997.43
2022-11-29T05:21:43.993Z,997.43
2022-11-29T05:22:46.596Z,997.51
2022-11-29T05:23:49.233Z,997.5
2022-11-29T05:24:51.896Z,997.44
2022-11-29T05:25:54.572Z,997.5
2022-11-29T05:26:57.232Z,997.43
2022-11-29T05:27:59.855Z,997.43
2022-11-29T05:29:06.019Z,997.44
2022-11-29T05:30:08.378Z,997.41
2022-11-29T05:31:11.260Z,997.45
2022-11-29T05:32:13.931Z,997.42
2022-11-29T05:34:14.477Z,997.41
2022-11-29T05:35:16.283Z,997.41
2022-11-29T05:36:18.829Z,997.41
2022-11-29T05:37:21.447Z,997.46
2022-11-29T05:38:24.291Z,997.42
2022-11-29T05:39:26.906Z,997.44
2022-11-29T05:40:29.607Z,997.44
2022-11-29T05:41:32.218Z,997.46
2022-11-29T05:42:34.867Z,997.48
2022-11-29T05:43:37.486Z,997.48
2022-11-29T05:44:43.341Z,997.48
2022-11-29T05:45:45.933Z,997.43
2022-11-29T05:46:48.692Z,997.43
2022-11-29T05:47:51.355Z,997.47
2022-11-29T05:48:54.438Z,997.45
2022-11-29T05:49:57.095Z,997.46
2022-11-29T05:50:59.744Z,997.48
2022-11-29T05:52:02.391Z,997.48
2022-11-29T05:53:05.038Z,997.47
2022-11-29T05:54:15.632Z,997.48
2022-11-29T05:55:17.494Z,997.5
2022-11-29T05:56:20.137Z,997.55
2022-11-29T05:57:22.797Z,997.49
2022-11-29T05:58:31.138Z,997.56
2022-11-29T05:59:34.040Z,997.59
2022-11-29T06:00:40.138Z,997.55
2022-11-29T06:01:54.326Z,997.61
2022-11-29T06:02:56.766Z,997.63
2022-11-29T06:03:59.403Z,997.6
2022-11-29T06:05:02.097Z,997.65
2022-11-29T06:06:04.809Z,997.63
2022-11-29T06:07:07.561Z,997.64
2022-11-29T06:08:10.227Z,997.67
2022-11-29T06:09:12.875Z,997.65
2022-11-29T06:10:15.490Z,997.63
2022-11-29T06:11:18.370Z,997.59
2022-11-29T06:12:21.947Z,997.67
2022-11-29T06:13:24.515Z,997.66
2022-11-29T06:14:27.134Z,997.68
2022-11-29T06:15:29.793Z,997.67
2022-11-29T06:16:57.628Z,997.64
2022-11-29T06:18:00.409Z,997.67
2022-11-29T06:19:03.243Z,997.69
2022-11-29T06:20:05.930Z,997.7
2022-11-29T06:21:08.553Z,997.71
2022-11-29T06:22:11.163Z,997.66
2022-11-29T06:23:13.815Z,997.71
2022-11-29T06:24:25.829Z,997.68
2022-11-29T06:25:28.216Z,997.72
2022-11-29T06:26:30.829Z,997.78
2022-11-29T06:27:33.434Z,997.74
2022-11-29T06:28:36.092Z,997.77
2022-11-29T06:29:38.758Z,997.76
2022-11-29T06:30:41.456Z,997.76
2022-11-29T06:31:44.514Z,997.75
2022-11-29T06:32:47.164Z,997.75
2022-11-29T06:33:49.811Z,997.78
2022-11-29T06:34:52.438Z,997.79
2022-11-29T06:35:55.320Z,997.83
2022-11-29T06:36:57.977Z,997.85
2022-11-29T06:38:00.623Z,997.83
2022-11-29T06:39:03.270Z,997.82
2022-11-29T06:40:06.158Z,997.88
2022-11-29T06:41:08.812Z,997.85
2022-11-29T06:42:11.438Z,997.84
2022-11-29T06:43:14.105Z,997.86
2022-11-29T06:44:16.753Z,997.83
2022-11-29T06:45:33.730Z,997.86
2022-11-29T06:46:36.356Z,997.92
2022-11-29T06:47:38.997Z,997.85
2022-11-29T06:48:42.333Z,997.94
2022-11-29T06:49:44.947Z,997.88
2022-11-29T06:50:47.606Z,997.84
2022-11-29T06:51:50.228Z,997.91
2022-11-29T06:52:53.168Z,997.91
2022-11-29T06:53:55.791Z,997.94
2022-11-29T06:54:58.404Z,997.93
2022-11-29T06:56:01.064Z,997.97
2022-11-29T06:57:03.705Z,997.96
2022-11-29T06:58:06.375Z,998.01
2022-11-29T06:59:09.015Z,998.08
2022-11-29T07:00:11.749Z,998.02
2022-11-29T07:01:14.785Z,998.05
2022-11-29T07:02:17.687Z,998.05
2022-11-29T07:03:20.375Z,998.04
2022-11-29T07:04:23.013Z,998.07
2022-11-29T07:05:25.697Z,998.09
2022-11-29T07:06:28.317Z,998.04
2022-11-29T07:07:31.290Z,998.04
2022-11-29T07:08:33.979Z,998.08
2022-11-29T07:09:36.605Z,998.06
2022-11-29T07:10:39.291Z,998.08
2022-11-29T07:11:41.943Z,998.11
2022-11-29T07:12:52.134Z,998.12
2022-11-29T07:13:54.399Z,998.16
2022-11-29T07:14:56.984Z,998.17
2022-11-29T07:15:59.823Z,998.18
2022-11-29T07:17:02.758Z,998.2
2022-11-29T07:18:05.358Z,998.21
2022-11-29T07:19:07.978Z,998.16
2022-11-29T07:20:22.322Z,998.28
2022-11-29T07:21:24.507Z,998.27
2022-11-29T07:22:27.109Z,998.22
2022-11-29T07:23:29.863Z,998.29
2022-11-29T07:24:32.526Z,998.24
2022-11-29T07:25:35.194Z,998.26
2022-11-29T07:26:37.834Z,998.26
2022-11-29T07:27:40.478Z,998.24
2022-11-29T07:28:43.173Z,998.3
2022-11-29T07:29:45.753Z,998.28
2022-11-29T07:30:48.428Z,998.29
2022-11-29T07:31:51.385Z,998.26
2022-11-29T07:33:01.039Z,998.3
2022-11-29T07:34:03.909Z,998.28
2022-11-29T07:35:06.482Z,998.33
2022-11-29T07:36:09.107Z,998.28
2022-11-29T07:37:11.794Z,998.31
2022-11-29T07:38:14.450Z,998.32
2022-11-29T07:39:17.366Z,998.33
2022-11-29T07:40:25.816Z,998.28
2022-11-29T07:41:41.657Z,998.31
2022-11-29T07:42:43.992Z,998.3
2022-11-29T07:43:47.152Z,998.28
2022-11-29T07:45:08.289Z,998.27
2022-11-29T07:46:10.149Z,998.32
2022-11-29T07:47:12.773Z,998.32
2022-11-29T07:48:15.367Z,998.35
2022-11-29T07:49:18.469Z,998.36
2022-11-29T07:50:21.325Z,998.38
2022-11-29T07:51:24.001Z,998.33
2022-11-29T07:52:26.655Z,998.35
2022-11-29T07:53:29.277Z,998.38
2022-11-29T07:54:32.008Z,998.37
2022-11-29T07:55:39.238Z,998.34
2022-11-29T07:56:41.527Z,998.38
2022-11-29T07:57:44.161Z,998.37
2022-11-29T07:58:47.117Z,998.36
2022-11-29T07:59:49.789Z,998.36
2022-11-29T08:00:52.646Z,998.4
2022-11-29T08:01:55.571Z,998.39
2022-11-29T08:02:58.151Z,998.39
2022-11-29T08:04:01.399Z,998.44
2022-11-29T08:05:03.983Z,998.43
2022-11-29T08:06:06.602Z,998.45
2022-11-29T08:07:09.258Z,998.44
2022-11-29T08:08:11.910Z,998.46
2022-11-29T08:09:14.515Z,998.5
2022-11-29T08:10:17.193Z,998.53
2022-11-29T08:11:19.884Z,998.55
2022-11-29T08:12:22.489Z,998.54
2022-11-29T08:13:25.118Z,998.55
2022-11-29T08:14:27.769Z,998.56
2022-11-29T08:15:30.444Z,998.53
2022-11-29T08:16:33.628Z,998.55
2022-11-29T08:17:36.518Z,998.52
2022-11-29T08:18:39.107Z,998.57
2022-11-29T08:19:41.797Z,998.56
2022-11-29T08:20:44.452Z,998.6
2022-11-29T08:21:47.154Z,998.56
2022-11-29T08:22:50.036Z,998.58
2022-11-29T08:23:52.739Z,998.58
2022-11-29T08:24:55.502Z,998.62
2022-11-29T08:25:58.353Z,998.58
2022-11-29T08:27:01.144Z,998.63
2022-11-29T08:28:03.756Z,998.64
2022-11-29T08:29:06.411Z,998.65
2022-11-29T08:30:09.076Z,998.72
2022-11-29T08:31:12.131Z,998.69
2022-11-29T08:32:14.737Z,998.67
2022-11-29T08:33:17.385Z,998.69
2022-11-29T08:34:20.033Z,998.67
2022-11-29T08:35:22.926Z,998.67
2022-11-29T08:36:25.597Z,998.66
2022-11-29T08:37:28.474Z,998.7
2022-11-29T08:38:31.150Z,998.71
2022-11-29T08:39:36.481Z,998.71
2022-11-29T08:40:39.547Z,998.73
2022-11-29T08:41:42.236Z,998.69
2022-11-29T08:42:45.172Z,998.75
2022-11-29T08:43:47.814Z,998.72
2022-11-29T08:44:50.547Z,998.67
2022-11-29T08:45:53.471Z,998.7
2022-11-29T08:46:56.119Z,998.73
2022-11-29T08:47:58.763Z,998.66
2022-11-29T08:49:01.980Z,998.67
2022-11-29T08:50:04.710Z,998.74
2022-11-29T08:51:07.394Z,998.77
2022-11-29T08:52:10.033Z,998.78
2022-11-29T08:53:13.270Z,998.83
2022-11-29T08:54:15.885Z,998.81
2022-11-29T08:55:18.566Z,998.84
2022-11-29T08:57:43.134Z,998.84
2022-11-29T08:58:45.766Z,998.81
2022-11-29T08:59:48.485Z,998.89
2022-11-29T09:00:51.337Z,998.88
2022-11-29T09:01:54.555Z,998.9
2022-11-29T09:02:57.218Z,998.87
2022-11-29T09:03:59.960Z,998.89
2022-11-29T09:05:02.618Z,998.89
2022-11-29T09:06:13.599Z,998.9
2022-11-29T09:07:15.861Z,998.94
2022-11-29T09:08:18.517Z,998.9
2022-11-29T09:09:21.154Z,998.95
2022-11-29T09:10:23.818Z,998.93
2022-11-29T09:11:27.047Z,998.91
2022-11-29T09:12:29.690Z,998.9
2022-11-29T09:13:32.376Z,998.96
2022-11-29T09:14:35.052Z,998.95
2022-11-29T09:15:37.674Z,998.97
2022-11-29T09:16:40.512Z,998.98
2022-11-29T09:17:44.751Z,999
2022-11-29T09:18:52.746Z,999.01
2022-11-29T09:19:58.658Z,999.04
2022-11-29T09:21:01.079Z,999.03
2022-11-29T09:22:08.328Z,999
2022-11-29T09:23:10.584Z,999.04
2022-11-29T09:24:14.261Z,999.07
2022-11-29T09:25:20.564Z,999.1
2022-11-29T09:26:22.960Z,999.09
2022-11-29T09:27:28.098Z,999.05
2022-11-29T09:28:40.733Z,999.13
2022-11-29T09:29:42.979Z,999.1
2022-11-29T09:30:48.302Z,999.13
2022-11-29T09:31:51.298Z,999.13
2022-11-29T09:32:53.878Z,999.17
2022-11-29T09:33:56.552Z,999.15
2022-11-29T09:34:59.198Z,999.16
2022-11-29T09:36:01.888Z,999.15
2022-11-29T09:37:07.640Z,999.21
2022-11-29T09:38:11.150Z,999.24
2022-11-29T09:39:13.878Z,999.22
2022-11-29T09:40:27.549Z,999.27
2022-11-29T09:41:28.956Z,999.27
2022-11-29T09:42:31.631Z,999.33
2022-11-29T09:43:35.285Z,999.33
2022-11-29T09:44:37.932Z,999.29
2022-11-29T09:45:40.789Z,999.3
2022-11-29T09:46:45.746Z,999.27
2022-11-29T09:48:02.344Z,999.32
2022-11-29T09:49:29.168Z,999.22
2022-11-29T09:51:44.857Z,999.31
2022-11-29T09:52:48.902Z,999.34
2022-11-29T09:53:57.048Z,999.29
2022-11-29T09:54:59.275Z,999.31
2022-11-29T09:56:09.140Z,999.31
2022-11-29T09:57:11.497Z,999.35
2022-11-29T09:58:22.065Z,999.35
2022-11-29T09:59:24.377Z,999.3
2022-11-29T10:00:27.369Z,999.36
2022-11-29T10:01:30.323Z,999.38
2022-11-29T10:02:33.217Z,999.34
2022-11-29T10:03:35.948Z,999.36
2022-11-29T10:04:38.899Z,999.34
2022-11-29T10:05:41.790Z,999.31
2022-11-29T10:06:44.465Z,999.37
2022-11-29T10:07:47.271Z,999.37
2022-11-29T10:08:49.957Z,999.36
2022-11-29T10:09:53.195Z,999.29
2022-11-29T10:10:55.795Z,999.33
2022-11-29T10:11:59.037Z,999.39
2022-11-29T10:13:01.679Z,999.33
2022-11-29T10:14:04.344Z,999.3
2022-11-29T10:15:06.975Z,999.35
2022-11-29T10:16:09.990Z,999.38
2022-11-29T10:17:12.648Z,999.39
2022-11-29T10:18:15.319Z,999.39
2022-11-29T10:19:17.989Z,999.37
2022-11-29T10:20:20.642Z,999.35
2022-11-29T10:21:23.316Z,999.29
2022-11-29T10:22:25.926Z,999.39
2022-11-29T10:23:33.906Z,999.39
2022-11-29T10:24:35.900Z,999.36
2022-11-29T10:25:38.600Z,999.35
2022-11-29T10:26:41.460Z,999.39
2022-11-29T10:27:44.092Z,999.36
2022-11-29T10:28:46.738Z,999.41
2022-11-29T10:29:49.634Z,999.33
2022-11-29T10:30:52.744Z,999.38
2022-11-29T10:31:55.485Z,999.36
2022-11-29T10:32:58.419Z,999.33
2022-11-29T10:34:01.076Z,999.36
2022-11-29T10:35:04.536Z,999.33
2022-11-29T10:36:07.183Z,999.4
2022-11-29T10:37:10.072Z,999.38
2022-11-29T10:38:31.592Z,999.37
2022-11-29T10:39:33.888Z,999.33
2022-11-29T10:40:36.450Z,999.35
2022-11-29T10:41:39.276Z,999.34
2022-11-29T10:42:41.933Z,999.29
2022-11-29T10:43:44.576Z,999.22
2022-11-29T10:44:49.649Z,999.31
2022-11-29T10:45:52.278Z,999.27
2022-11-29T10:46:54.925Z,999.32
2022-11-29T10:47:57.641Z,999.3
2022-11-29T10:49:00.541Z,999.3
2022-11-29T10:50:03.244Z,999.28
2022-11-29T10:51:06.097Z,999.3
2022-11-29T10:52:08.800Z,999.3
2022-11-29T10:53:11.459Z,999.29
2022-11-29T10:54:14.120Z,999.27
2022-11-29T10:55:16.794Z,999.24
2022-11-29T10:56:19.470Z,999.24
2022-11-29T10:57:22.171Z,999.23
2022-11-29T10:58:29.298Z,999.26
2022-11-29T10:59:31.669Z,999.29
2022-11-29T11:00:34.289Z,999.26
2022-11-29T11:01:37.638Z,999.24
2022-11-29T11:02:40.249Z,999.22
2022-11-29T11:03:42.931Z,999.32
2022-11-29T11:04:47.378Z,999.27
2022-11-29T11:05:50.138Z,999.32
2022-11-29T11:06:52.849Z,999.29
2022-11-29T11:07:55.855Z,999.24
2022-11-29T11:08:58.691Z,999.25
2022-11-29T11:10:03.227Z,999.25
2022-11-29T11:11:05.407Z,999.31
2022-11-29T11:12:08.101Z,999.26
2022-11-29T11:13:10.856Z,999.29
2022-11-29T11:14:13.559Z,999.28
2022-11-29T11:15:16.444Z,999.24
2022-11-29T11:16:19.599Z,999.27
2022-11-29T11:17:22.972Z,999.25
2022-11-29T11:18:25.615Z,999.24
2022-11-29T11:19:28.794Z,999.22
2022-11-29T11:20:31.428Z,999.22
2022-11-29T11:21:34.680Z,999.17
2022-11-29T11:22:37.310Z,999.15
2022-11-29T11:23:43.332Z,999.12
2022-11-29T11:24:46.807Z,999.14
2022-11-29T11:25:49.492Z,999.11
2022-11-29T11:26:52.108Z,999.15
2022-11-29T11:27:55.587Z,999.13
2022-11-29T11:28:58.128Z,999.19
2022-11-29T11:30:00.789Z,999.15
2022-11-29T11:31:03.771Z,999.22
2022-11-29T11:32:06.413Z,999.26
2022-11-29T11:33:09.119Z,999.18
2022-11-29T11:34:16.429Z,999.19
2022-11-29T11:35:19.042Z,999.21
2022-11-29T11:36:21.664Z,999.22
2022-11-29T11:37:24.355Z,999.23
2022-11-29T11:38:27.039Z,999.23
2022-11-29T11:39:29.702Z,999.23
2022-11-29T11:40:32.659Z,999.16
2022-11-29T11:41:35.306Z,999.33
2022-11-29T11:42:46.118Z,999.32
2022-11-29T11:43:48.087Z,999.28
2022-11-29T11:44:50.763Z,999.33
2022-11-29T11:45:53.913Z,999.25
2022-11-29T11:46:56.546Z,999.19
2022-11-29T11:47:59.210Z,999.2
2022-11-29T11:49:01.847Z,999.21
2022-11-29T11:50:04.733Z,999.28
2022-11-29T11:51:07.405Z,999.27
2022-11-29T11:52:10.069Z,999.27
2022-11-29T11:53:12.718Z,999.28
2022-11-29T11:54:15.354Z,999.26
2022-11-29T11:55:18.034Z,999.28
2022-11-29T11:56:20.663Z,999.31
2022-11-29T11:57:23.787Z,999.3
2022-11-29T11:58:26.434Z,999.29
2022-11-29T11:59:29.100Z,999.27
2022-11-29T12:01:03.268Z,999.3
2022-11-29T12:01:54.212Z,999.33
2022-11-29T12:02:57.196Z,999.31
2022-11-29T12:04:02.493Z,999.33
2022-11-29T12:05:05.010Z,999.33
2022-11-29T12:06:08.237Z,999.32
2022-11-29T12:07:10.916Z,999.34
2022-11-29T12:08:14.049Z,999.28
2022-11-29T12:09:16.994Z,999.31
2022-11-29T12:10:19.663Z,999.3
2022-11-29T12:11:22.574Z,999.3
2022-11-29T12:12:25.224Z,999.28
2022-11-29T12:13:27.886Z,999.34
2022-11-29T12:14:31.263Z,999.36
2022-11-29T12:15:34.045Z,999.36
2022-11-29T12:16:36.746Z,999.36
2022-11-29T12:17:39.389Z,999.41
2022-11-29T12:18:42.041Z,999.38
2022-11-29T12:19:44.743Z,999.37
2022-11-29T12:20:47.403Z,999.42
2022-11-29T12:21:51.214Z,999.42
2022-11-29T12:22:53.891Z,999.38
2022-11-29T12:23:56.569Z,999.39
2022-11-29T12:24:59.461Z,999.44
2022-11-29T12:26:02.308Z,999.44
2022-11-29T12:27:05.376Z,999.41
2022-11-29T12:28:08.014Z,999.42
2022-11-29T12:29:10.639Z,999.45
2022-11-29T12:30:13.354Z,999.43
2022-11-29T12:31:16.334Z,999.45
2022-11-29T12:32:18.977Z,999.39
2022-11-29T12:33:21.844Z,999.46
2022-11-29T12:34:25.152Z,999.46
2022-11-29T12:35:27.394Z,999.44
2022-11-29T12:36:30.636Z,999.42
2022-11-29T12:37:33.326Z,999.44
2022-11-29T12:38:36.231Z,999.46
2022-11-29T12:45:43.489Z,999.49
2022-11-29T12:47:37.318Z,999.48
2022-11-29T12:48:39.195Z,999.48
2022-11-29T12:49:41.760Z,999.5
2022-11-29T12:50:44.415Z,999.49
2022-11-29T12:51:47.080Z,999.49
2022-11-29T12:52:49.706Z,999.54
2022-11-29T12:53:52.971Z,999.49
2022-11-29T12:54:55.559Z,999.56
2022-11-29T12:57:41.269Z,999.52
2022-11-29T12:58:53.457Z,999.48
2022-11-29T12:59:55.527Z,999.55
2022-11-29T13:00:58.154Z,999.54
2022-11-29T13:02:00.959Z,999.5
2022-11-29T13:03:03.835Z,999.58
2022-11-29T13:04:06.503Z,999.56
2022-11-29T13:05:09.149Z,999.57
2022-11-29T13:06:11.756Z,999.6
2022-11-29T13:07:14.427Z,999.65
2022-11-29T13:08:17.075Z,999.62
2022-11-29T13:09:19.769Z,999.63
2022-11-29T13:10:22.371Z,999.61
2022-11-29T13:11:25.009Z,999.64
2022-11-29T13:12:27.821Z,999.6
2022-11-29T13:13:30.506Z,999.63
2022-11-29T13:14:44.532Z,999.65
2022-11-29T13:15:47.083Z,999.66
2022-11-29T13:16:50.096Z,999.63
2022-11-29T13:17:52.723Z,999.69
2022-11-29T13:18:55.385Z,999.67
2022-11-29T13:19:58.034Z,999.64
2022-11-29T13:21:00.717Z,999.7
2022-11-29T13:22:03.484Z,999.66
2022-11-29T13:23:08.010Z,999.71
2022-11-29T13:24:11.120Z,999.64